Time;durP1;ratioP1;P1;durP2;ratioP2;P2;SDS_P1;SDS_P2;PMS_P1;PMS_P2;Temp;Humidity;BMP_temperature;BMP_pressure;BME280_temperature;BME280_humidity;BME280_pressure;Samples;Min_cycle;Max_cycle;Signal;HPM_P1;HPM_P2
2022/11/13 00:02:00;;;;;;;60.95;26.15;;;;;;;9.48;100.00;100414.91;4421114;32;20418;-73
2022/11/13 00:04:45;;;;;;;56.72;22.67;;;;;;;9.58;100.00;100450.28;4419318;32;20034;-73
2022/11/13 00:07:30;;;;;;;54.97;26.17;;;;;;;9.07;100.00;100447.16;4422580;32;20076;-73
2022/11/13 00:10:15;;;;;;;49.70;23.33;;;;;;;9.47;100.00;100448.22;4420358;32;20038;-73
2022/11/13 00:13:00;;;;;;;54.28;22.02;;;;;;;9.07;100.00;100422.97;4422230;32;20116;-72
2022/11/13 00:15:56;;;;;;;55.08;24.92;;;;;;;8.90;100.00;100413.66;4388333;32;20045;-73
2022/11/13 00:18:41;;;;;;;52.10;24.10;;;;;;;9.25;100.00;100464.53;4364373;32;20097;-73
2022/11/13 00:21:26;;;;;;;59.20;24.10;;;;;;;9.07;100.00;100457.91;4363752;32;20047;-73
2022/11/13 00:24:11;;;;;;;59.88;25.65;;;;;;;9.36;100.00;100458.53;4365766;32;20499;-73
2022/11/13 00:26:56;;;;;;;67.40;23.62;;;;;;;9.50;100.00;100453.19;4365910;32;20012;-72
2022/11/13 00:29:40;;;;;;;55.28;24.87;;;;;;;9.27;100.00;100454.44;4365542;32;20451;-73
2022/11/13 00:32:25;;;;;;;58.85;26.15;;;;;;;9.57;100.00;100454.00;4365459;32;20202;-72
2022/11/13 00:35:11;;;;;;;60.33;25.12;;;;;;;9.21;100.00;100423.00;4367561;32;20437;-72
2022/11/13 00:37:56;;;;;;;51.53;23.40;;;;;;;9.21;100.00;100409.56;4368904;32;20053;-73
2022/11/13 00:40:41;;;;;;;60.58;26.85;;;;;;;9.29;100.00;100440.78;4352972;32;20093;-73
2022/11/13 00:43:26;;;;;;;57.97;24.73;;;;;;;9.45;100.00;100440.34;4358377;32;20402;-73
2022/11/13 00:46:11;;;;;;;66.10;26.50;;;;;;;9.23;100.00;100435.19;4377308;32;20251;-72
2022/11/13 00:48:56;;;;;;;63.35;27.13;;;;;;;8.98;100.00;100429.56;4406580;32;20052;-73
2022/11/13 00:51:41;;;;;;;71.37;28.55;;;;;;;9.16;100.00;100406.66;4429324;32;20046;-72
2022/11/13 00:54:26;;;;;;;71.80;28.52;;;;;;;9.19;100.00;100420.53;4430854;32;20042;-73
2022/11/13 00:57:11;;;;;;;83.35;29.17;;;;;;;9.40;100.00;100416.78;4428246;32;20060;-73
2022/11/13 00:59:56;;;;;;;68.82;28.80;;;;;;;9.53;100.00;100425.88;4430066;32;20084;-73
2022/11/13 01:02:41;;;;;;;66.95;27.87;;;;;;;9.21;100.00;100390.75;4428699;32;20050;-73
2022/11/13 01:05:26;;;;;;;59.95;26.05;;;;;;;9.39;100.00;100414.31;4397654;32;20027;-73
2022/11/13 01:08:13;;;;;;;55.90;25.35;;;;;;;9.26;100.00;100377.50;4395605;32;20043;-73
2022/11/13 01:10:58;;;;;;;67.50;25.15;;;;;;;9.20;100.00;100413.28;4397413;32;20361;-73
2022/11/13 01:13:44;;;;;;;69.60;25.88;;;;;;;9.44;100.00;100418.03;4364387;32;20069;-73
2022/11/13 01:16:29;;;;;;;58.60;24.65;;;;;;;9.56;100.00;100409.34;4359045;32;20043;-73
2022/11/13 01:19:14;;;;;;;60.55;25.10;;;;;;;9.35;100.00;100403.16;4353160;32;20035;-73
2022/11/13 01:21:59;;;;;;;55.58;25.08;;;;;;;9.37;100.00;100395.69;4355007;32;20073;-73
2022/11/13 01:24:44;;;;;;;60.58;21.17;;;;;;;9.15;100.00;100372.75;4331878;33;20065;-73
2022/11/13 01:27:29;;;;;;;47.97;20.00;;;;;;;8.77;100.00;100368.81;4340773;33;20032;-73
2022/11/13 01:30:15;;;;;;;55.47;21.92;;;;;;;9.13;100.00;100401.72;4338622;33;20373;-74
2022/11/13 01:33:00;;;;;;;52.72;20.77;;;;;;;8.78;100.00;100359.72;4340707;33;20040;-73
2022/11/13 01:35:44;;;;;;;52.10;22.48;;;;;;;9.20;100.00;100394.47;4336034;32;20047;-73
2022/11/13 01:38:29;;;;;;;46.35;19.75;;;;;;;9.01;100.00;100383.50;4370479;32;20059;-73
2022/11/13 01:41:28;;;;;;;48.30;19.58;;;;;;;8.84;100.00;100352.69;4368972;32;20056;-72
2022/11/13 01:44:15;;;;;;;49.90;19.92;;;;;;;9.20;100.00;100416.78;4372671;32;20425;-72
2022/11/13 01:47:02;;;;;;;59.42;20.58;;;;;;;8.81;100.00;100380.00;4370806;32;20044;-73
2022/11/13 01:49:50;;;;;;;46.55;19.12;;;;;;;8.98;100.00;100408.09;4369172;32;20068;-73
2022/11/13 01:52:39;;;;;;;56.90;21.05;;;;;;;8.81;100.00;100406.84;4370824;32;20079;-72
2022/11/13 01:55:25;;;;;;;50.40;20.42;;;;;;;9.15;100.00;100396.94;4387749;32;20339;-72
2022/11/13 01:58:11;;;;;;;42.40;19.02;;;;;;;8.70;100.00;100392.97;4425274;32;20131;-72
2022/11/13 02:00:56;;;;;;;49.67;20.45;;;;;;;8.77;100.00;100392.97;4430684;32;20034;-72
2022/11/13 02:03:41;;;;;;;54.22;20.10;;;;;;;8.51;100.00;100391.09;4429360;32;20157;-72
2022/11/13 02:06:33;;;;;;;50.53;20.37;;;;;;;8.76;100.00;100394.03;4431608;32;20359;-72
2022/11/13 02:09:23;;;;;;;51.08;19.98;;;;;;;8.81;100.00;100347.75;4433089;32;20089;-72
2022/11/13 02:12:11;;;;;;;41.85;17.58;;;;;;;8.97;100.00;100368.84;4431468;32;20026;-72
2022/11/13 02:14:58;;;;;;;51.45;19.45;;;;;;;8.43;100.00;100350.97;4431680;32;20474;-72
2022/11/13 02:17:50;;;;;;;56.40;20.90;;;;;;;8.88;100.00;100380.81;4431565;32;20095;-72
2022/11/13 02:20:41;;;;;;;48.10;19.77;;;;;;;9.23;100.00;100380.59;4432908;32;20072;-73
2022/11/13 02:23:44;;;;;;;56.45;19.98;;;;;;;9.13;100.00;100383.72;4418195;32;20055;-73
2022/11/13 02:26:30;;;;;;;50.67;18.98;;;;;;;9.03;100.00;100383.28;4417901;32;20068;-73
2022/11/13 02:29:15;;;;;;;48.83;20.88;;;;;;;8.79;100.00;100379.34;4431614;32;20054;-74
2022/11/13 02:32:01;;;;;;;55.22;20.08;;;;;;;8.80;100.00;100367.59;4429422;32;20042;-74
2022/11/13 02:34:46;;;;;;;55.75;22.40;;;;;;;8.40;100.00;100346.00;4432769;32;20056;-73
2022/11/13 02:37:31;;;;;;;53.33;20.90;;;;;;;8.77;100.00;100351.88;4430853;32;20060;-74
2022/11/13 02:40:17;;;;;;;54.00;20.67;;;;;;;8.98;100.00;100375.84;4432709;32;20033;-72
2022/11/13 02:43:02;;;;;;;55.25;21.10;;;;;;;9.01;100.00;100378.12;4430786;32;20041;-73
2022/11/13 02:45:47;;;;;;;48.85;20.15;;;;;;;9.05;100.00;100371.31;4431940;32;20121;-73
2022/11/13 02:48:32;;;;;;;55.25;21.62;;;;;;;9.00;100.00;100364.88;4428817;32;20068;-73
2022/11/13 02:51:16;;;;;;;50.97;21.98;;;;;;;9.05;100.00;100367.81;4383061;32;20154;-73
2022/11/13 02:54:01;;;;;;;56.63;20.62;;;;;;;8.81;100.00;100347.75;4383269;32;20042;-73
2022/11/13 02:56:46;;;;;;;65.28;22.50;;;;;;;8.90;100.00;100384.09;4384645;32;20031;-72
2022/11/13 02:59:31;;;;;;;48.55;20.12;;;;;;;8.66;100.00;100389.06;4381722;32;20039;-73
2022/11/13 03:02:15;;;;;;;48.30;19.95;;;;;;;8.48;100.00;100343.16;4384618;32;20024;-73
2022/11/13 03:05:00;;;;;;;54.20;20.10;;;;;;;8.08;100.00;100300.12;4354015;32;20464;-73
2022/11/13 03:07:45;;;;;;;50.67;19.27;;;;;;;8.18;100.00;100349.69;4354714;32;20047;-73
2022/11/13 03:10:36;;;;;;;41.55;17.80;;;;;;;8.39;100.00;100381.94;4310004;33;20053;-73
2022/11/13 03:13:21;;;;;;;49.40;19.15;;;;;;;8.57;100.00;100395.66;4310492;33;20057;-73
2022/11/13 03:16:12;;;;;;;42.65;16.37;;;;;;;8.71;100.00;100391.94;4309284;33;20097;-73
2022/11/13 03:18:57;;;;;;;41.75;16.55;;;;;;;8.68;100.00;100386.13;4299384;33;20029;-73
2022/11/13 03:21:41;;;;;;;46.20;18.80;;;;;;;8.50;100.00;100395.63;4316020;33;20044;-73
2022/11/13 03:24:26;;;;;;;45.35;18.08;;;;;;;8.46;100.00;100393.56;4339355;33;20036;-73
2022/11/13 03:27:11;;;;;;;44.95;19.08;;;;;;;8.47;100.00;100387.13;4336722;33;20428;-73
2022/11/13 03:29:56;;;;;;;41.35;19.33;;;;;;;8.32;100.00;100389.97;4324004;33;20088;-72
2022/11/13 03:32:41;;;;;;;46.35;18.17;;;;;;;8.07;100.00;100341.38;4321040;33;20370;-73
2022/11/13 03:35:26;;;;;;;45.40;18.48;;;;;;;8.43;100.00;100377.81;4333069;33;20197;-72
2022/11/13 03:38:10;;;;;;;48.30;18.87;;;;;;;8.49;100.00;100355.56;4358212;32;20188;-73
2022/11/13 03:40:55;;;;;;;48.55;18.87;;;;;;;8.70;100.00;100374.19;4378100;32;20023;-73
2022/11/13 03:43:40;;;;;;;41.92;17.27;;;;;;;8.37;100.00;100379.44;4391081;32;20047;-73
2022/11/13 03:46:25;;;;;;;65.55;18.50;;;;;;;8.34;100.00;100343.13;4383739;32;20169;-72
2022/11/13 03:49:10;;;;;;;41.20;17.58;;;;;;;8.49;100.00;100382.41;4383843;32;20061;-72
2022/11/13 03:51:55;;;;;;;47.15;18.23;;;;;;;8.09;100.00;100320.53;4383891;32;20043;-73
2022/11/13 03:54:41;;;;;;;47.42;17.58;;;;;;;8.48;100.00;100380.75;4360093;32;20196;-73
2022/11/13 03:57:25;;;;;;;46.10;19.05;;;;;;;8.37;100.00;100374.88;4368881;32;20899;-72
2022/11/13 04:00:11;;;;;;;30.88;14.60;;;;;;;8.42;100.00;100376.97;4368186;32;20035;-72
2022/11/13 04:02:56;;;;;;;35.05;14.25;;;;;;;8.19;100.00;100366.59;4368771;32;20058;-72
2022/11/13 04:05:42;;;;;;;38.53;16.20;;;;;;;7.89;100.00;100374.94;4368554;32;20039;-73
2022/11/13 04:08:26;;;;;;;39.25;16.65;;;;;;;7.78;100.00;100333.41;4353751;32;20076;-72
2022/11/13 04:11:09;;;;;;;40.83;18.02;;;;;;;8.20;100.00;100362.91;4354245;32;20065;-72
2022/11/13 04:13:54;;;;;;;43.13;17.67;;;;;;;8.56;100.00;100371.69;4383167;32;20071;-73
2022/11/13 04:16:39;;;;;;;43.72;16.80;;;;;;;8.50;100.00;100365.25;4387177;32;20520;-73
2022/11/13 04:19:24;;;;;;;40.40;16.25;;;;;;;8.41;100.00;100363.75;4398502;32;20068;-73
2022/11/13 04:22:09;;;;;;;39.10;15.82;;;;;;;8.31;100.00;100370.34;4398881;32;20068;-73
2022/11/13 04:24:54;;;;;;;41.28;15.70;;;;;;;8.48;100.00;100370.00;4402058;32;20022;-73
2022/11/13 04:27:38;;;;;;;36.40;14.93;;;;;;;8.15;100.00;100362.66;4371580;32;20047;-73
2022/11/13 04:30:23;;;;;;;40.53;15.18;;;;;;;7.63;100.00;100293.34;4366247;32;20043;-73
2022/11/13 04:33:08;;;;;;;36.00;15.10;;;;;;;7.96;100.00;100357.03;4373432;32;20462;-73
2022/11/13 04:35:53;;;;;;;37.60;15.65;;;;;;;7.96;100.00;100365.06;4381300;32;20043;-71
2022/11/13 04:38:38;;;;;;;37.80;15.40;;;;;;;7.70;100.00;100338.13;4383235;32;20080;-72
2022/11/13 04:44:27;;;;;;;46.92;18.83;;;;;;;8.07;100.00;100370.88;4382699;32;20107;-73
2022/11/13 04:47:12;;;;;;;43.65;18.52;;;;;;;8.10;100.00;100335.59;4383397;32;20031;-72
2022/11/13 04:49:56;;;;;;;46.85;16.73;;;;;;;8.05;100.00;100327.34;4378487;32;20087;-73
2022/11/13 04:52:42;;;;;;;37.35;15.43;;;;;;;8.05;100.00;100365.72;4381620;32;20019;-72
2022/11/13 04:55:26;;;;;;;42.50;16.08;;;;;;;8.04;100.00;100321.16;4380331;32;20072;-73
2022/11/13 04:58:11;;;;;;;37.22;16.35;;;;;;;8.06;100.00;100328.97;4382989;32;20079;-73
2022/11/13 05:00:56;;;;;;;43.65;17.17;;;;;;;8.19;100.00;100366.59;4412344;32;20052;-73
2022/11/13 05:03:41;;;;;;;42.97;17.50;;;;;;;8.14;100.00;100348.41;4398263;32;20045;-73
2022/11/13 05:06:26;;;;;;;33.60;14.63;;;;;;;8.29;100.00;100350.94;4401996;32;20050;-74
2022/11/13 05:09:11;;;;;;;38.40;14.93;;;;;;;7.86;100.00;100318.19;4408241;32;20110;-74
2022/11/13 05:11:56;;;;;;;36.42;15.10;;;;;;;7.68;100.00;100321.41;4412547;32;20045;-74
2022/11/13 05:14:41;;;;;;;38.10;15.30;;;;;;;7.50;100.00;100287.94;4412665;32;20052;-74
2022/11/13 05:17:26;;;;;;;34.13;15.02;;;;;;;7.72;100.00;100311.94;4413092;32;20074;-74
2022/11/13 05:20:10;;;;;;;39.78;15.35;;;;;;;7.98;100.00;100305.88;4402535;32;20030;-73
2022/11/13 05:22:56;;;;;;;35.65;15.32;;;;;;;8.24;100.00;100337.28;4412523;32;20057;-73
2022/11/13 05:25:41;;;;;;;38.65;15.60;;;;;;;8.09;100.00;100350.88;4412807;32;20039;-74
2022/11/13 05:28:26;;;;;;;39.75;16.40;;;;;;;7.94;100.00;100308.09;4383062;32;20047;-74
2022/11/13 05:31:13;;;;;;;43.20;16.05;;;;;;;8.30;100.00;100339.16;4366590;32;20426;-74
2022/11/13 05:33:58;;;;;;;42.20;14.98;;;;;;;8.55;100.00;100360.09;4366909;32;20049;-74
2022/11/13 05:36:43;;;;;;;41.30;16.75;;;;;;;8.00;100.00;100290.38;4367920;32;20028;-74
2022/11/13 05:39:28;;;;;;;45.35;17.58;;;;;;;8.42;100.00;100338.56;4333381;33;20056;-75
2022/11/13 05:42:12;;;;;;;41.50;17.15;;;;;;;8.56;100.00;100356.41;4338090;33;20037;-75
2022/11/13 05:44:57;;;;;;;48.83;19.12;;;;;;;8.45;100.00;100359.69;4346014;33;20040;-75
2022/11/13 05:47:42;;;;;;;48.05;16.92;;;;;;;8.44;100.00;100363.38;4333358;33;20433;-75
2022/11/13 05:50:27;;;;;;;47.03;17.27;;;;;;;8.33;100.00;100352.19;4323311;33;20040;-75
2022/11/13 05:53:12;;;;;;;40.63;16.08;;;;;;;8.46;100.00;100372.06;4322897;33;20044;-74
2022/11/13 05:56:01;;;;;;;46.15;18.67;;;;;;;8.46;100.00;100366.72;4323192;33;20147;-74
2022/11/13 05:58:52;;;;;;;38.65;15.48;;;;;;;8.70;100.00;100341.97;4337211;33;20046;-75
2022/11/13 06:01:39;;;;;;;40.35;17.80;;;;;;;8.60;100.00;100363.03;4355783;32;20188;-74
2022/11/13 06:04:24;;;;;;;39.25;17.90;;;;;;;8.32;100.00;100337.09;4369979;32;20050;-74
2022/11/13 06:07:08;;;;;;;42.72;17.12;;;;;;;8.09;100.00;100333.94;4370156;32;20101;-73
2022/11/13 06:09:53;;;;;;;45.20;17.25;;;;;;;8.37;100.00;100369.53;4380019;32;20015;-73
2022/11/13 06:12:38;;;;;;;38.03;16.27;;;;;;;8.11;100.00;100329.22;4396229;32;20397;-73
2022/11/13 06:15:22;;;;;;;41.90;16.98;;;;;;;8.25;100.00;100365.78;4399533;32;20093;-74
2022/11/13 06:18:08;;;;;;;37.30;14.63;;;;;;;8.10;100.00;100330.25;4400219;32;20052;-74
2022/11/13 06:20:53;;;;;;;38.38;14.35;;;;;;;8.22;100.00;100338.50;4405692;32;20375;-74
2022/11/13 06:23:39;;;;;;;39.22;14.85;;;;;;;8.33;100.00;100344.12;4417338;32;20080;-74
2022/11/13 06:26:26;;;;;;;29.10;13.23;;;;;;;8.25;100.00;100343.47;4417437;32;20043;-75
2022/11/13 06:29:11;;;;;;;45.00;14.10;;;;;;;8.37;100.00;100374.88;4415130;32;20060;-74
2022/11/13 06:31:56;;;;;;;30.80;13.40;;;;;;;8.17;100.00;100382.06;4394932;32;20121;-75
2022/11/13 06:34:41;;;;;;;31.70;13.50;;;;;;;8.05;100.00;100370.25;4392073;32;20074;-75
2022/11/13 06:37:25;;;;;;;27.83;11.63;;;;;;;7.95;100.00;100382.19;4389908;32;20035;-75
2022/11/13 06:40:11;;;;;;;26.75;12.23;;;;;;;7.49;100.00;100345.22;4399797;32;20072;-76
2022/11/13 06:42:56;;;;;;;32.40;12.98;;;;;;;7.79;100.00;100344.97;4388386;32;20061;-75
2022/11/13 06:45:41;;;;;;;26.77;11.20;;;;;;;7.81;100.00;100361.69;4398656;32;20227;-75
2022/11/13 06:48:26;;;;;;;23.73;10.00;;;;;;;7.89;100.00;100366.88;4396943;32;20073;-75
2022/11/13 06:51:20;;;;;;;28.75;12.70;;;;;;;7.88;100.00;100370.59;4397825;32;20055;-75
2022/11/13 06:54:04;;;;;;;28.05;12.05;;;;;;;8.12;100.00;100379.13;4396225;32;20023;-75
2022/11/13 06:56:50;;;;;;;36.70;11.85;;;;;;;7.81;100.00;100353.66;4398366;32;20042;-74
2022/11/13 06:59:35;;;;;;;24.90;10.32;;;;;;;7.32;100.00;100352.72;4398589;32;20039;-75
2022/11/13 07:02:20;;;;;;;31.90;12.73;;;;;;;7.30;100.00;100368.19;4399251;32;20038;-75
2022/11/13 07:05:05;;;;;;;26.98;11.32;;;;;;;7.28;100.00;100349.63;4404971;32;20035;-75
2022/11/13 07:07:50;;;;;;;30.90;11.75;;;;;;;7.24;100.00;100315.37;4416870;32;20084;-75
2022/11/13 07:10:35;;;;;;;28.30;10.98;;;;;;;7.59;100.00;100351.03;4416660;32;20047;-75
2022/11/13 07:13:21;;;;;;;26.27;11.15;;;;;;;7.76;100.00;100390.97;4416557;32;20427;-74
2022/11/13 07:16:08;;;;;;;31.40;12.35;;;;;;;7.67;100.00;100384.09;4382674;32;20028;-75
2022/11/13 07:18:54;;;;;;;26.42;12.07;;;;;;;7.76;100.00;100390.97;4386810;32;20046;-73
2022/11/13 07:21:45;;;;;;;28.98;10.88;;;;;;;7.82;100.00;100382.13;4398543;32;20047;-74
2022/11/13 07:24:30;;;;;;;25.50;11.07;;;;;;;7.69;100.00;100387.41;4364466;32;20061;-74
2022/11/13 07:27:15;;;;;;;27.50;10.77;;;;;;;7.41;100.00;100314.06;4367944;32;20050;-75
2022/11/13 07:30:00;;;;;;;24.23;11.02;;;;;;;7.35;100.00;100322.06;4351818;32;20044;-75
2022/11/13 07:32:45;;;;;;;24.67;10.07;;;;;;;7.97;100.00;100401.56;4352603;32;20059;-75
2022/11/13 07:35:30;;;;;;;31.33;11.38;;;;;;;8.21;100.00;100396.72;4353831;32;20032;-77
2022/11/13 07:38:14;;;;;;;25.02;8.77;;;;;;;8.26;100.00;100399.63;4348140;32;20071;-74
2022/11/13 07:40:59;;;;;;;20.02;8.82;;;;;;;7.93;100.00;100400.34;4335748;33;20479;-73
2022/11/13 07:43:44;;;;;;;15.68;6.65;;;;;;;7.94;100.00;100396.59;4324531;33;20088;-74
2022/11/13 07:46:29;;;;;;;16.98;7.40;;;;;;;7.92;100.00;100398.66;4335875;33;20039;-75
2022/11/13 07:49:14;;;;;;;20.52;8.38;;;;;;;7.99;100.00;100362.00;4339038;33;20475;-75
2022/11/13 07:51:59;;;;;;;23.55;8.10;;;;;;;8.25;100.00;100389.94;4335390;33;20048;-75
2022/11/13 07:54:44;;;;;;;21.05;8.95;;;;;;;8.21;100.00;100375.25;4346959;32;20438;-75
2022/11/13 07:57:29;;;;;;;15.73;7.05;;;;;;;8.34;100.00;100390.56;4382999;32;20060;-74
2022/11/13 08:00:14;;;;;;;15.13;7.57;;;;;;;7.66;100.00;100360.97;4360783;32;20023;-75
2022/11/13 08:03:07;;;;;;;16.37;7.00;;;;;;;7.56;100.00;100356.81;4382494;32;20039;-74
2022/11/13 08:05:59;;;;;;;13.90;6.78;;;;;;;8.08;100.00;100385.97;4383510;32;20027;-74
2022/11/13 08:08:48;;;;;;;21.48;8.68;;;;;;;8.20;100.00;100389.72;4381570;32;20061;-74
2022/11/13 08:11:35;;;;;;;24.98;10.80;;;;;;;8.10;100.00;100389.25;4389786;32;20030;-74
2022/11/13 08:14:21;;;;;;;26.37;11.05;;;;;;;7.64;100.00;100355.81;4381880;32;20052;-74
2022/11/13 08:17:07;;;;;;;24.48;10.70;;;;;;;7.56;100.00;100356.81;4326439;33;20070;-73
2022/11/13 08:19:54;;;;;;;33.25;12.00;;;;;;;7.80;100.00;100389.50;4337559;33;20048;-74
2022/11/13 08:22:40;;;;;;;33.47;13.40;;;;;;;7.83;100.00;100394.50;4340628;32;20137;-74
2022/11/13 08:25:26;;;;;;;34.25;12.82;;;;;;;7.81;100.00;100391.19;4334002;33;20066;-76
2022/11/13 08:28:11;;;;;;;35.22;13.05;;;;;;;7.76;100.00;100393.63;4332585;33;20514;-74
2022/11/13 08:30:57;;;;;;;28.35;11.52;;;;;;;7.39;100.00;100371.56;4348387;32;20066;-74
2022/11/13 08:33:44;;;;;;;26.02;11.00;;;;;;;7.81;100.00;100388.50;4368252;32;20032;-74
2022/11/13 08:36:31;;;;;;;31.15;11.23;;;;;;;8.13;100.00;100388.84;4367158;32;20065;-74
2022/11/13 08:39:16;;;;;;;29.20;9.55;;;;;;;8.17;100.00;100379.37;4338608;33;20369;-74
2022/11/13 08:42:06;;;;;;;26.90;10.40;;;;;;;8.16;100.00;100361.63;4322391;33;20044;-73
2022/11/13 08:44:53;;;;;;;24.25;9.95;;;;;;;8.49;100.00;100387.78;4335538;33;20040;-74
2022/11/13 08:47:39;;;;;;;26.17;10.10;;;;;;;8.26;100.00;100394.25;4347981;32;20043;-75
2022/11/13 08:50:23;;;;;;;37.28;10.80;;;;;;;8.21;100.00;100380.63;4367696;32;20031;-74
2022/11/13 08:53:09;;;;;;;26.17;10.77;;;;;;;7.85;100.00;100352.22;4356878;32;20076;-75
2022/11/13 08:56:01;;;;;;;25.42;9.70;;;;;;;8.05;100.00;100359.53;4364860;32;20023;-75
2022/11/13 08:58:52;;;;;;;22.95;10.63;;;;;;;8.45;100.00;100389.19;4386855;32;20051;-75
2022/11/13 09:01:48;;;;;;;22.30;9.05;;;;;;;8.23;100.00;100391.97;4393930;32;20063;-73
2022/11/13 09:04:35;;;;;;;25.95;11.00;;;;;;;8.30;100.00;100390.16;4395961;32;20046;-75
2022/11/13 09:07:20;;;;;;;23.60;9.82;;;;;;;7.60;100.00;100357.25;4397857;32;20035;-75
2022/11/13 09:10:07;;;;;;;27.62;12.80;;;;;;;8.15;100.00;100362.66;4400522;32;20054;-78
2022/11/13 09:13:02;;;;;;;31.27;11.77;;;;;;;7.94;100.00;100380.50;4400322;32;20039;-76
2022/11/13 09:15:47;;;;;;;35.15;13.05;;;;;;;7.83;100.00;100362.31;4399797;32;20527;-76
2022/11/13 09:18:32;;;;;;;35.72;12.55;;;;;;;7.43;100.00;100372.81;4414013;32;20075;-75
2022/11/13 09:21:21;;;;;;;34.20;13.13;;;;;;;7.01;100.00;100342.44;4414350;32;20051;-75
2022/11/13 09:24:12;;;;;;;28.80;10.95;;;;;;;7.54;100.00;100385.66;4415807;32;20383;-75
2022/11/13 09:27:04;;;;;;;27.55;11.93;;;;;;;7.37;100.00;100395.03;4415983;32;20104;-75
2022/11/13 09:29:54;;;;;;;29.42;10.70;;;;;;;7.49;100.00;100390.78;4415116;32;20060;-75
2022/11/13 09:32:39;;;;;;;30.08;12.23;;;;;;;7.62;100.00;100390.84;4396966;32;20057;-75
2022/11/13 09:35:34;;;;;;;27.98;10.68;;;;;;;7.74;100.00;100382.28;4382104;32;20052;-76
2022/11/13 09:38:23;;;;;;;27.37;10.40;;;;;;;7.38;100.00;100327.03;4383766;32;20149;-76
2022/11/13 09:41:17;;;;;;;25.52;9.65;;;;;;;8.23;100.00;100356.28;4333062;33;20070;-75
2022/11/13 09:44:06;;;;;;;30.62;10.95;;;;;;;8.21;100.00;100356.47;4307028;33;20044;-75
2022/11/13 09:46:50;;;;;;;26.73;8.30;;;;;;;8.27;100.00;100366.41;4276424;33;20504;-75
2022/11/13 09:49:42;;;;;;;23.27;9.38;;;;;;;7.80;100.00;100341.25;4278073;33;20102;-75
2022/11/13 09:52:38;;;;;;;28.83;10.68;;;;;;;8.46;100.00;100355.97;4277256;33;20075;-74
2022/11/13 09:55:31;;;;;;;25.88;9.23;;;;;;;8.45;100.00;100365.03;4274846;33;20061;-74
2022/11/13 09:58:30;;;;;;;25.40;10.00;;;;;;;8.30;100.00;100357.97;4274200;33;20038;-74
2022/11/13 10:02:00;;;;;;;22.65;10.65;;;;;;;7.92;100.00;100318.22;4275620;33;20971;-74
2022/11/13 10:05:08;;;;;;;24.58;9.80;;;;;;;7.79;100.00;100344.97;4274283;33;20033;-75
2022/11/13 10:08:15;;;;;;;30.88;10.45;;;;;;;7.39;100.00;100317.97;4318810;33;20088;-75
2022/11/13 10:11:22;;;;;;;36.03;12.50;;;;;;;7.56;100.00;100359.50;4317385;33;20048;-75
2022/11/13 10:14:33;;;;;;;26.52;10.27;;;;;;;7.39;100.00;100315.28;4355552;32;20069;-74
2022/11/13 10:17:24;;;;;;;28.77;11.90;;;;;;;7.93;100.00;100352.06;4389490;32;20074;-75
2022/11/13 10:20:38;;;;;;;32.85;12.37;;;;;;;7.58;100.00;100337.88;4411423;32;20058;-74
2022/11/13 10:23:30;;;;;;;27.83;11.25;;;;;;;7.78;100.00;100349.50;4410284;32;20809;-75
2022/11/13 10:26:19;;;;;;;24.05;7.45;;;;;;;7.64;100.00;100348.63;4409656;32;20072;-74
2022/11/13 10:29:19;;;;;;;29.67;12.30;;;;;;;7.21;100.00;100339.88;4409477;32;20037;-76
2022/11/13 10:32:21;;;;;;;27.42;10.98;;;;;;;7.29;100.00;100320.97;4416032;32;20058;-73
2022/11/13 10:35:06;;;;;;;38.15;13.52;;;;;;;7.07;100.00;100347.00;4432351;32;20438;-74
2022/11/13 10:38:08;;;;;;;23.25;8.30;;;;;;;6.78;100.00;100311.37;4432924;32;20374;-74
2022/11/13 10:41:13;;;;;;;33.50;15.37;;;;;;;6.91;100.00;100332.88;4431784;32;20059;-74
2022/11/13 10:44:04;;;;;;;25.08;9.82;;;;;;;6.90;100.00;100331.22;4431285;32;20198;-74
2022/11/13 10:46:48;;;;;;;31.92;10.45;;;;;;;6.85;100.00;100316.75;4432129;32;20097;-74
2022/11/13 10:49:33;;;;;;;34.35;9.55;;;;;;;7.18;100.00;100321.53;4397376;32;20073;-75
2022/11/13 10:52:27;;;;;;;28.00;10.15;;;;;;;7.07;100.00;100310.34;4399504;32;20039;-74
2022/11/13 10:55:33;;;;;;;26.08;9.88;;;;;;;7.39;100.00;100301.87;4397959;32;20059;-73
2022/11/13 10:58:19;;;;;;;21.33;9.60;;;;;;;7.74;100.00;100309.91;4392360;32;20049;-74
2022/11/13 11:01:33;;;;;;;23.85;8.98;;;;;;;7.37;100.00;100294.03;4387027;32;20199;-75
2022/11/13 11:04:28;;;;;;;19.77;8.23;;;;;;;7.60;100.00;100309.00;4358177;32;20112;-74
2022/11/13 11:07:23;;;;;;;20.90;8.63;;;;;;;6.96;100.00;100318.91;4361239;32;20081;-74
2022/11/13 11:10:27;;;;;;;20.50;8.15;;;;;;;7.10;100.00;100244.84;4366951;32;20023;-75
2022/11/13 11:13:21;;;;;;;17.58;7.68;;;;;;;7.32;100.00;100307.19;4365970;32;20055;-74
2022/11/13 11:16:09;;;;;;;19.02;8.70;;;;;;;7.53;100.00;100308.97;4367083;32;20443;-74
2022/11/13 11:19:01;;;;;;;21.48;8.90;;;;;;;7.28;100.00;100305.94;4342629;32;20050;-74
2022/11/13 11:21:49;;;;;;;21.98;9.30;;;;;;;7.08;100.00;100279.00;4310423;33;20506;-74
2022/11/13 11:24:41;;;;;;;23.00;8.40;;;;;;;6.58;100.00;100235.44;4308219;33;20053;-74
2022/11/13 11:27:35;;;;;;;23.85;10.98;;;;;;;6.76;100.00;100302.69;4305548;33;20461;-74
2022/11/13 11:30:23;;;;;;;27.92;10.20;;;;;;;6.89;100.00;100289.41;4305654;33;20033;-75
2022/11/13 11:33:16;;;;;;;27.02;9.98;;;;;;;6.89;100.00;100265.31;4311297;33;20909;-75
2022/11/13 11:36:07;;;;;;;32.28;11.73;;;;;;;6.91;100.00;100316.00;4308346;33;20088;-74
2022/11/13 11:39:18;;;;;;;25.70;11.70;;;;;;;6.63;100.00;100286.50;4307558;33;20033;-74
2022/11/13 11:42:33;;;;;;;36.50;15.80;;;;;;;7.14;100.00;100313.06;4332661;32;20060;-75
2022/11/13 11:45:40;;;;;;;27.05;10.27;;;;;;;6.82;100.00;100309.94;4337735;32;20169;-74
2022/11/13 11:48:28;;;;;;;32.97;13.70;;;;;;;7.15;100.00;100301.31;4349848;32;20050;-74
2022/11/13 11:51:30;;;;;;;30.55;11.38;;;;;;;6.55;100.00;100241.97;4387953;32;20061;-75
2022/11/13 11:54:25;;;;;;;30.98;11.20;;;;;;;7.14;100.00;100267.53;4426766;32;20428;-74
2022/11/13 11:57:38;;;;;;;37.35;13.68;;;;;;;6.95;100.00;100300.34;4423556;32;20208;-73
2022/11/13 12:00:30;;;;;;;32.88;13.98;;;;;;;6.82;100.00;100301.91;4425412;32;20042;-75
2022/11/13 12:03:56;;;;;;;28.60;12.02;;;;;;;6.63;100.00;100281.97;4424978;32;20060;-75
2022/11/13 12:06:48;;;;;;;41.70;12.23;;;;;;;7.06;100.00;100305.19;4406302;32;20072;-75
2022/11/13 12:09:45;;;;;;;36.35;14.18;;;;;;;6.70;100.00;100306.97;4423839;32;20038;-74
2022/11/13 12:12:58;;;;;;;44.53;15.95;;;;;;;6.85;100.00;100306.06;4427591;32;20033;-75
2022/11/13 12:16:22;;;;;;;39.72;16.02;;;;;;;7.23;100.00;100301.16;4422499;32;20034;-74
2022/11/13 12:19:53;;;;;;;36.42;16.48;;;;;;;7.28;100.00;100289.88;4372619;32;20082;-73
2022/11/13 12:23:02;;;;;;;47.97;18.33;;;;;;;7.12;100.00;100279.47;4357514;32;20081;-73
2022/11/13 12:25:52;;;;;;;49.42;17.73;;;;;;;7.33;100.00;100246.41;4385707;32;20067;-74
2022/11/13 12:29:00;;;;;;;39.70;16.90;;;;;;;7.11;100.00;100235.78;4375104;32;20039;-73
2022/11/13 12:32:11;;;;;;;44.40;15.85;;;;;;;7.07;100.00;100255.94;4360035;32;20082;-73
2022/11/13 12:35:01;;;;;;;50.88;16.75;;;;;;;6.83;100.00;100282.16;4357780;32;20068;-73
2022/11/13 12:37:50;;;;;;;40.85;16.42;;;;;;;7.18;100.00;100260.75;4357430;32;20035;-72
2022/11/13 12:40:40;;;;;;;36.35;14.75;;;;;;;7.24;100.00;100261.81;4362868;32;20132;-74
2022/11/13 12:43:52;;;;;;;36.45;13.18;;;;;;;7.66;100.00;100251.91;4367424;32;20077;-73
2022/11/13 12:46:39;;;;;;;40.38;15.43;;;;;;;7.83;100.00;100257.72;4362095;32;20096;-73
2022/11/13 12:49:33;;;;;;;37.35;14.40;;;;;;;7.75;100.00;100253.38;4359817;32;20062;-74
2022/11/13 12:52:21;;;;;;;31.00;13.32;;;;;;;7.63;100.00;100220.97;4360537;32;20095;-74